createdAt,value
2022-08-20T00:01:42.030Z,20.62
2022-08-20T00:04:14.337Z,20.48
2022-08-20T00:06:46.421Z,20.51
2022-08-20T00:09:16.867Z,20.47
2022-08-20T00:11:47.314Z,20.51
2022-08-20T00:14:17.847Z,20.46
2022-08-20T00:16:51.274Z,20.58
2022-08-20T00:19:22.693Z,20.55
2022-08-20T00:21:56.610Z,20.46
2022-08-20T00:24:27.768Z,20.51
2022-08-20T00:26:58.291Z,20.30
2022-08-20T00:29:28.821Z,20.39
2022-08-20T00:31:59.440Z,20.36
2022-08-20T00:34:30.316Z,20.36
2022-08-20T00:37:01.213Z,20.58
2022-08-20T00:39:31.800Z,20.40
2022-08-20T00:42:02.860Z,20.46
2022-08-20T00:44:33.731Z,20.53
2022-08-20T00:47:05.094Z,20.42
2022-08-20T00:49:35.572Z,20.39
2022-08-20T00:52:12.780Z,20.48
2022-08-20T00:54:49.105Z,20.47
2022-08-20T00:57:25.511Z,20.38
2022-08-20T00:59:57.295Z,20.38
2022-08-20T01:02:30.829Z,20.47
2022-08-20T01:05:01.383Z,20.51
2022-08-20T01:07:35.762Z,20.50
2022-08-20T01:10:09.343Z,20.45
2022-08-20T01:12:43.321Z,20.53
2022-08-20T01:15:17.181Z,20.43
2022-08-20T01:17:51.034Z,20.51
2022-08-20T01:20:24.552Z,20.43
2022-08-20T01:23:29.891Z,20.38
2022-08-20T01:26:22.342Z,20.43
2022-08-20T01:29:01.865Z,20.48
2022-08-20T01:31:35.092Z,20.34
2022-08-20T01:34:09.023Z,20.36
2022-08-20T01:36:46.328Z,20.38
2022-08-20T01:39:18.666Z,20.23
2022-08-20T01:41:55.975Z,20.09
2022-08-20T01:44:27.488Z,20.16
2022-08-20T01:46:59.593Z,20.06
2022-08-20T01:49:34.854Z,20.02
2022-08-20T01:52:08.410Z,19.95
2022-08-20T01:54:39.028Z,19.72
2022-08-20T01:57:18.358Z,19.56
2022-08-20T01:59:51.093Z,19.65
2022-08-20T02:02:21.903Z,19.50
2022-08-20T02:04:52.549Z,19.30
2022-08-20T02:07:24.241Z,19.26
2022-08-20T02:09:55.874Z,19.21
2022-08-20T02:12:26.549Z,19.24
2022-08-20T02:14:57.947Z,19.23
2022-08-20T02:17:28.766Z,19.29
2022-08-20T02:20:06.078Z,19.26
2022-08-20T02:22:49.247Z,19.20
2022-08-20T02:25:16.394Z,19.13
2022-08-20T02:27:48.771Z,19.17
2022-08-20T02:30:28.683Z,19.25
2022-08-20T02:33:00.946Z,19.12
2022-08-20T02:35:32.537Z,19.21
2022-08-20T02:38:04.987Z,19.09
2022-08-20T02:40:35.954Z,19.14
2022-08-20T02:43:07.788Z,19.32
2022-08-20T02:45:39.974Z,19.26
2022-08-20T02:48:18.037Z,19.14
2022-08-20T02:50:57.342Z,19.11
2022-08-20T02:53:30.511Z,19.23
2022-08-20T02:56:01.917Z,19.26
2022-08-20T02:58:35.270Z,19.36
2022-08-20T03:01:09.537Z,19.42
2022-08-20T03:03:41.474Z,19.42
2022-08-20T03:06:13.555Z,19.42
2022-08-20T03:08:44.856Z,19.51
2022-08-20T03:11:15.352Z,19.44
2022-08-20T03:13:47.345Z,19.53
2022-08-20T03:16:17.766Z,19.43
2022-08-20T03:18:52.185Z,19.48
2022-08-20T03:21:21.812Z,19.57
2022-08-20T03:23:52.288Z,19.49
2022-08-20T03:26:22.872Z,19.62
2022-08-20T03:28:53.516Z,19.51
2022-08-20T03:31:24.071Z,19.44
2022-08-20T03:33:54.558Z,19.49
2022-08-20T03:36:28.330Z,19.46
2022-08-20T03:39:01.103Z,19.48
2022-08-20T03:41:32.195Z,19.51
2022-08-20T03:44:02.711Z,19.58
2022-08-20T03:46:33.872Z,19.59
2022-08-20T03:49:05.145Z,19.58
2022-08-20T03:51:57.274Z,19.60
2022-08-20T03:54:08.010Z,19.48
2022-08-20T03:56:38.480Z,19.48
2022-08-20T03:59:09.726Z,19.60
2022-08-20T04:01:46.321Z,19.61
2022-08-20T04:04:12.897Z,19.53
2022-08-20T04:06:45.826Z,19.58
2022-08-20T04:09:16.320Z,19.60
2022-08-20T04:11:46.820Z,19.56
2022-08-20T04:14:18.658Z,19.54
2022-08-20T04:16:49.882Z,19.62
2022-08-20T04:19:21.669Z,19.55
2022-08-20T04:21:52.113Z,19.61
2022-08-20T04:24:31.626Z,19.77
2022-08-20T04:26:55.632Z,19.75
2022-08-20T04:29:32.107Z,19.68
2022-08-20T04:32:00.669Z,19.69
2022-08-20T04:34:32.742Z,19.64
2022-08-20T04:37:04.698Z,19.62
2022-08-20T04:39:36.755Z,19.55
2022-08-20T04:42:07.587Z,19.70
2022-08-20T04:44:39.796Z,19.74
2022-08-20T04:47:10.246Z,19.66
2022-08-20T04:49:40.785Z,19.64
2022-08-20T04:52:11.981Z,19.76
2022-08-20T04:54:43.759Z,19.60
2022-08-20T04:57:14.218Z,19.64
2022-08-20T04:59:45.369Z,19.71
2022-08-20T05:02:17.453Z,19.81
2022-08-20T05:04:49.769Z,19.90
2022-08-20T05:07:20.315Z,19.94
2022-08-20T05:09:50.853Z,19.70
2022-08-20T05:12:21.222Z,19.83
2022-08-20T05:14:51.648Z,19.82
2022-08-20T05:17:23.897Z,19.84
2022-08-20T05:19:54.434Z,19.80
2022-08-20T05:22:25.041Z,19.81
2022-08-20T05:24:58.766Z,19.64
2022-08-20T05:27:30.302Z,19.70
2022-08-20T05:30:10.225Z,19.80
2022-08-20T05:32:44.543Z,19.82
2022-08-20T05:35:13.945Z,19.78
2022-08-20T05:37:45.761Z,19.82
2022-08-20T05:40:16.698Z,19.92
2022-08-20T05:42:47.402Z,19.91
2022-08-20T05:45:18.393Z,19.91
2022-08-20T05:47:56.660Z,20.02
2022-08-20T05:50:23.507Z,19.99
2022-08-20T05:52:54.036Z,20.02
2022-08-20T05:55:24.617Z,20.16
2022-08-20T05:58:00.238Z,20.04
2022-08-20T06:00:31.568Z,20.04
2022-08-20T06:03:20.849Z,19.99
2022-08-20T06:05:51.616Z,19.94
2022-08-20T06:08:24.373Z,19.97
2022-08-20T06:10:55.149Z,19.98
2022-08-20T06:13:29.535Z,19.93
2022-08-20T06:16:00.307Z,20.08
2022-08-20T06:18:31.241Z,20.10
2022-08-20T06:21:01.777Z,20.13
2022-08-20T06:23:54.388Z,20.20
2022-08-20T06:26:06.188Z,20.43
2022-08-20T06:28:37.409Z,20.33
2022-08-20T06:31:09.385Z,20.16
2022-08-20T06:33:39.835Z,20.25
2022-08-20T06:36:11.850Z,20.19
2022-08-20T06:38:45.572Z,20.08
2022-08-20T06:41:19.205Z,20.22
2022-08-20T06:43:51.292Z,20.05
2022-08-20T06:46:23.429Z,20.26
2022-08-20T06:48:53.972Z,20.19
2022-08-20T06:51:24.514Z,20.30
2022-08-20T06:53:55.101Z,20.30
2022-08-20T06:56:26.084Z,20.20
2022-08-20T06:58:56.755Z,20.19
2022-08-20T07:01:27.490Z,20.05
2022-08-20T07:03:59.648Z,20.16
2022-08-20T07:06:31.196Z,20.40
2022-08-20T07:09:03.712Z,20.14
2022-08-20T07:11:35.900Z,20.37
2022-08-20T07:14:07.314Z,20.23
2022-08-20T07:16:38.159Z,20.32
2022-08-20T07:19:08.645Z,20.38
2022-08-20T07:21:41.122Z,20.25
2022-08-20T07:24:12.693Z,20.40
2022-08-20T07:26:44.540Z,20.25
2022-08-20T07:29:15.029Z,20.34
2022-08-20T07:32:05.448Z,20.44
2022-08-20T07:34:36.271Z,20.51
2022-08-20T07:37:07.786Z,20.45
2022-08-20T07:39:38.298Z,20.46
2022-08-20T07:42:09.809Z,20.34
2022-08-20T07:44:40.254Z,20.44
2022-08-20T07:47:13.859Z,20.54
2022-08-20T07:49:44.503Z,20.59
2022-08-20T07:52:16.485Z,20.66
2022-08-20T07:54:47.059Z,20.57
2022-08-20T07:57:18.821Z,20.52
2022-08-20T07:59:50.309Z,20.46
2022-08-20T08:02:20.827Z,20.48
2022-08-20T08:04:51.550Z,20.65
2022-08-20T08:07:25.286Z,20.70
2022-08-20T08:09:59.499Z,20.58
2022-08-20T08:12:33.078Z,20.50
2022-08-20T08:15:06.016Z,20.42
2022-08-20T08:17:37.599Z,20.45
2022-08-20T08:20:09.999Z,20.27
2022-08-20T08:22:42.508Z,20.29
2022-08-20T08:25:14.043Z,20.39
2022-08-20T08:27:46.921Z,20.44
2022-08-20T08:30:18.315Z,20.51
2022-08-20T08:33:06.778Z,20.41
2022-08-20T08:35:39.998Z,20.64
2022-08-20T08:38:14.291Z,20.43
2022-08-20T08:40:45.655Z,20.50
2022-08-20T08:43:21.404Z,20.66
2022-08-20T08:45:57.700Z,20.56
2022-08-20T08:48:34.034Z,20.60
2022-08-20T08:51:12.200Z,20.51
2022-08-20T08:53:53.606Z,20.64
2022-08-20T08:56:27.144Z,20.71
2022-08-20T08:59:04.480Z,20.82
2022-08-20T09:01:54.153Z,21.00
2022-08-20T09:04:10.760Z,21.08
2022-08-20T09:06:43.626Z,21.04
2022-08-20T09:09:21.193Z,21.21
2022-08-20T09:11:54.522Z,21.44
2022-08-20T09:14:26.445Z,21.47
2022-08-20T09:16:56.892Z,21.55
2022-08-20T09:19:27.528Z,21.48
2022-08-20T09:21:58.316Z,21.69
2022-08-20T09:24:28.702Z,21.63
2022-08-20T09:26:59.250Z,21.64
2022-08-20T09:29:30.068Z,21.60
2022-08-20T09:32:15.903Z,21.62
2022-08-20T09:34:53.145Z,21.74
2022-08-20T09:37:26.376Z,21.67
2022-08-20T09:39:57.864Z,21.64
2022-08-20T09:42:31.597Z,21.84
2022-08-20T09:45:04.410Z,22.07
2022-08-20T09:47:36.034Z,22.12
2022-08-20T09:50:08.596Z,22.29
2022-08-20T09:52:48.390Z,22.18
2022-08-20T09:55:35.262Z,22.27
2022-08-20T09:58:21.840Z,22.39
2022-08-20T10:00:52.740Z,22.65
2022-08-20T10:03:23.404Z,22.82
2022-08-20T10:05:55.600Z,22.70
2022-08-20T10:08:26.357Z,22.61
2022-08-20T10:10:58.490Z,22.55
2022-08-20T10:13:28.949Z,22.74
2022-08-20T10:16:00.643Z,22.56
2022-08-20T10:18:31.086Z,22.49
2022-08-20T10:21:01.655Z,23.09
2022-08-20T10:23:32.145Z,23.40
2022-08-20T10:26:05.327Z,23.16
2022-08-20T10:28:36.295Z,22.82
2022-08-20T10:31:09.871Z,23.11
2022-08-20T10:33:42.075Z,22.93
2022-08-20T10:36:17.387Z,23.05
2022-08-20T10:38:51.924Z,23.03
2022-08-20T10:41:22.465Z,23.20
2022-08-20T10:43:52.944Z,23.17
2022-08-20T10:46:23.911Z,23.12
2022-08-20T10:48:54.811Z,23.42
2022-08-20T10:51:30.437Z,23.32
2022-08-20T10:53:57.565Z,23.78
2022-08-20T10:56:28.049Z,23.80
2022-08-20T10:58:58.533Z,23.64
2022-08-20T11:01:32.940Z,24.02
2022-08-20T11:04:01.323Z,23.94
2022-08-20T11:06:31.860Z,23.45
2022-08-20T11:09:04.574Z,23.38
2022-08-20T11:11:34.905Z,23.25
2022-08-20T11:14:05.784Z,23.18
2022-08-20T11:16:36.285Z,23.30
2022-08-20T11:19:06.855Z,23.19
2022-08-20T11:21:37.881Z,23.14
2022-08-20T11:24:08.753Z,23.30
2022-08-20T11:26:39.334Z,23.56
2022-08-20T11:29:10.101Z,23.56
2022-08-20T11:31:40.794Z,23.28
2022-08-20T11:34:12.803Z,23.41
2022-08-20T11:36:44.369Z,23.50
2022-08-20T11:39:15.252Z,23.38
2022-08-20T11:41:45.933Z,23.01
2022-08-20T11:44:20.712Z,23.13
2022-08-20T11:46:50.394Z,23.00
2022-08-20T11:49:20.825Z,22.95
2022-08-20T11:51:51.351Z,22.90
2022-08-20T11:54:24.717Z,22.94
2022-08-20T11:56:57.386Z,22.80
2022-08-20T11:59:30.069Z,22.90
2022-08-20T12:02:02.736Z,22.80
2022-08-20T12:04:33.873Z,22.98
2022-08-20T12:07:18.701Z,23.00
2022-08-20T12:09:50.959Z,23.00
2022-08-20T12:12:26.536Z,23.06
2022-08-20T12:14:56.924Z,23.05
2022-08-20T12:17:29.706Z,23.01
2022-08-20T12:20:02.709Z,23.13
2022-08-20T12:22:33.125Z,23.16
2022-08-20T12:25:04.508Z,23.16
2022-08-20T12:27:36.339Z,23.21
2022-08-20T12:30:09.831Z,23.19
2022-08-20T12:32:40.549Z,23.33
2022-08-20T12:35:12.819Z,23.28
2022-08-20T12:37:44.166Z,23.34
2022-08-20T12:40:18.038Z,23.40
2022-08-20T12:42:50.094Z,23.14
2022-08-20T12:45:20.615Z,23.34
2022-08-20T12:47:51.110Z,23.15
2022-08-20T12:50:28.479Z,23.22
2022-08-20T12:52:57.962Z,22.82
2022-08-20T12:55:29.595Z,22.77
2022-08-20T12:58:02.351Z,22.86
2022-08-20T13:00:35.880Z,23.00
2022-08-20T13:03:08.069Z,23.13
2022-08-20T13:05:39.216Z,22.99
2022-08-20T13:08:11.706Z,22.59
2022-08-20T13:10:45.808Z,22.78
2022-08-20T13:13:20.991Z,22.84
2022-08-20T13:15:51.750Z,22.32
2022-08-20T13:18:22.182Z,22.17
2022-08-20T13:20:52.582Z,22.18
2022-08-20T13:23:23.104Z,22.18
2022-08-20T13:25:53.872Z,21.98
2022-08-20T13:28:25.921Z,21.92
2022-08-20T13:30:56.382Z,21.98
2022-08-20T13:33:30.255Z,22.04
2022-08-20T13:36:02.655Z,21.89
2022-08-20T13:38:35.009Z,21.89
2022-08-20T13:41:05.948Z,21.69
2022-08-20T13:43:36.440Z,21.71
2022-08-20T13:46:07.058Z,21.60
2022-08-20T13:48:37.546Z,21.54
2022-08-20T13:51:08.184Z,21.50
2022-08-20T13:53:38.716Z,21.63
2022-08-20T13:56:09.228Z,21.56
2022-08-20T13:58:39.773Z,21.38
2022-08-20T14:01:10.288Z,21.41
2022-08-20T14:03:40.973Z,21.33
2022-08-20T14:06:13.106Z,21.18
2022-08-20T14:08:43.574Z,20.98
2022-08-20T14:11:17.867Z,21.00
2022-08-20T14:13:46.569Z,21.18
2022-08-20T14:16:21.339Z,20.72
2022-08-20T14:18:52.688Z,20.74
2022-08-20T14:21:21.254Z,20.53
2022-08-20T14:23:51.718Z,20.53
2022-08-20T14:26:22.310Z,20.65
2022-08-20T14:28:52.819Z,20.53
2022-08-20T14:31:23.222Z,20.38
2022-08-20T14:33:53.812Z,20.58
2022-08-20T14:36:24.266Z,20.68
2022-08-20T14:38:54.755Z,20.67
2022-08-20T14:41:25.189Z,20.69
2022-08-20T14:43:55.721Z,20.94
2022-08-20T14:46:28.531Z,21.02
2022-08-20T14:49:00.628Z,21.07
2022-08-20T14:51:31.381Z,21.12
2022-08-20T14:54:01.871Z,21.24
2022-08-20T14:56:33.360Z,21.24
2022-08-20T14:59:03.930Z,21.31
2022-08-20T15:01:34.395Z,21.26
2022-08-20T15:04:05.174Z,21.22
2022-08-20T15:06:35.566Z,21.25
2022-08-20T15:09:07.682Z,21.25
2022-08-20T15:11:39.977Z,21.29
2022-08-20T15:14:10.652Z,21.37
2022-08-20T15:16:41.627Z,21.33
2022-08-20T15:19:12.322Z,21.20
2022-08-20T15:21:45.841Z,21.34
2022-08-20T15:24:19.355Z,21.64
2022-08-20T15:26:49.959Z,21.37
2022-08-20T15:29:23.263Z,21.45
2022-08-20T15:31:52.709Z,21.36
2022-08-20T15:34:23.702Z,21.36
2022-08-20T15:36:55.893Z,21.30
2022-08-20T15:39:27.674Z,21.33
2022-08-20T15:41:58.687Z,21.39
2022-08-20T15:44:29.506Z,21.31
2022-08-20T15:47:03.017Z,21.22
2022-08-20T15:49:34.581Z,21.23
2022-08-20T15:52:05.811Z,21.34
2022-08-20T15:54:37.040Z,21.40
2022-08-20T15:57:43.800Z,21.56
2022-08-20T16:00:23.889Z,21.43
2022-08-20T16:03:09.231Z,21.57
2022-08-20T16:05:59.458Z,21.66
2022-08-20T16:08:42.994Z,21.69
2022-08-20T16:11:39.566Z,21.72
2022-08-20T16:14:20.582Z,21.60
2022-08-20T16:16:59.133Z,21.56
2022-08-20T16:19:34.857Z,21.55
2022-08-20T16:22:09.583Z,21.53
2022-08-20T16:24:40.122Z,21.64
2022-08-20T16:27:14.988Z,21.35
2022-08-20T16:30:06.974Z,21.29
2022-08-20T16:32:40.742Z,21.33
2022-08-20T16:35:35.358Z,21.38
2022-08-20T16:38:09.064Z,21.48
2022-08-20T16:40:49.529Z,21.46
2022-08-20T16:43:48.087Z,21.21
2022-08-20T16:46:21.586Z,21.30
2022-08-20T16:48:58.332Z,21.28
2022-08-20T16:51:38.215Z,21.22
2022-08-20T16:54:09.779Z,21.36
2022-08-20T16:56:46.181Z,21.28
2022-08-20T16:59:26.843Z,21.32
2022-08-20T17:01:55.124Z,21.42
2022-08-20T17:04:28.892Z,21.36
2022-08-20T17:07:02.127Z,21.23
2022-08-20T17:09:37.516Z,21.30
2022-08-20T17:12:27.800Z,21.25
2022-08-20T17:14:59.907Z,21.29
2022-08-20T17:17:36.433Z,21.32
2022-08-20T17:20:20.061Z,21.22
2022-08-20T17:22:53.959Z,21.32
2022-08-20T17:25:33.474Z,21.30
2022-08-20T17:28:20.695Z,21.34
2022-08-20T17:30:51.592Z,21.23
2022-08-20T17:33:40.736Z,21.16
2022-08-20T17:36:24.272Z,21.18
2022-08-20T17:38:57.845Z,21.24
2022-08-20T17:41:33.040Z,21.07
2022-08-20T17:44:09.486Z,21.00
2022-08-20T17:46:48.022Z,21.26
2022-08-20T17:49:38.089Z,20.87
2022-08-20T17:52:14.448Z,20.92
2022-08-20T17:54:48.362Z,20.93
2022-08-20T17:57:23.277Z,20.51
2022-08-20T18:00:01.210Z,20.48
2022-08-20T18:02:31.544Z,20.28
2022-08-20T18:05:02.707Z,20.16
2022-08-20T18:07:40.006Z,20.13
2022-08-20T18:10:15.800Z,19.96
2022-08-20T18:13:16.714Z,19.80
2022-08-20T18:15:50.825Z,19.92
2022-08-20T18:18:30.688Z,19.84
2022-08-20T18:21:13.228Z,20.02
2022-08-20T18:23:55.511Z,19.80
2022-08-20T18:26:49.113Z,19.82
2022-08-20T18:29:28.628Z,19.80
2022-08-20T18:32:05.385Z,19.78
2022-08-20T18:34:39.138Z,19.77
2022-08-20T18:37:17.247Z,19.80
2022-08-20T18:39:50.667Z,19.78
2022-08-20T18:42:36.072Z,19.78
2022-08-20T18:45:07.439Z,19.82
2022-08-20T18:47:41.144Z,19.82
2022-08-20T18:50:23.229Z,19.84
2022-08-20T18:53:12.104Z,19.76
2022-08-20T18:55:45.641Z,19.82
2022-08-20T18:58:21.895Z,19.96
2022-08-20T19:00:53.176Z,19.93
2022-08-20T19:03:38.749Z,19.92
2022-08-20T19:06:27.447Z,19.87
2022-08-20T19:09:20.715Z,19.84
2022-08-20T19:12:02.856Z,19.81
2022-08-20T19:15:00.818Z,19.88
2022-08-20T19:17:34.488Z,19.92
2022-08-20T19:20:10.799Z,19.85
2022-08-20T19:22:43.317Z,19.87
2022-08-20T19:25:29.735Z,19.87
2022-08-20T19:28:02.918Z,19.94
2022-08-20T19:30:36.535Z,19.87
2022-08-20T19:33:09.388Z,20.04
2022-08-20T19:35:40.940Z,19.94
2022-08-20T19:38:14.425Z,19.93
2022-08-20T19:40:46.025Z,19.96
2022-08-20T19:43:19.830Z,20.07
2022-08-20T19:45:54.393Z,19.97
2022-08-20T19:48:40.723Z,19.96
2022-08-20T19:51:34.198Z,20.05
2022-08-20T19:54:06.729Z,19.86
2022-08-20T19:56:41.917Z,19.88
2022-08-20T19:59:15.362Z,19.98
2022-08-20T20:01:56.143Z,19.90
2022-08-20T20:04:29.777Z,19.85
2022-08-20T20:06:59.838Z,19.78
2022-08-20T20:09:31.579Z,19.75
2022-08-20T20:12:05.748Z,19.76
2022-08-20T20:14:38.741Z,19.77
2022-08-20T20:17:14.814Z,19.77
2022-08-20T20:19:50.866Z,19.84
2022-08-20T20:22:27.379Z,19.87
2022-08-20T20:25:04.045Z,19.79
2022-08-20T20:27:36.794Z,19.78
2022-08-20T20:30:10.309Z,19.75
2022-08-20T20:32:44.038Z,19.77
2022-08-20T20:35:34.027Z,19.72
2022-08-20T20:38:15.055Z,19.82
2022-08-20T20:40:51.399Z,19.78
2022-08-20T20:43:33.575Z,19.80
2022-08-20T20:46:07.159Z,19.88
2022-08-20T20:48:49.126Z,19.82
2022-08-20T20:51:35.140Z,19.90
2022-08-20T20:54:09.317Z,19.90
2022-08-20T20:56:42.881Z,19.86
2022-08-20T20:59:13.422Z,19.83
2022-08-20T21:01:49.203Z,19.68
2022-08-20T21:04:16.176Z,19.77
2022-08-20T21:06:46.996Z,19.74
2022-08-20T21:09:20.136Z,19.75
2022-08-20T21:11:51.128Z,19.82
2022-08-20T21:14:21.702Z,19.74
2022-08-20T21:16:53.685Z,19.86
2022-08-20T21:19:24.320Z,19.83
2022-08-20T21:21:54.880Z,19.79
2022-08-20T21:24:26.126Z,19.73
2022-08-20T21:26:59.354Z,19.84
2022-08-20T21:29:33.109Z,19.86
2022-08-20T21:32:04.031Z,19.80
2022-08-20T21:34:35.771Z,19.86
2022-08-20T21:37:06.270Z,19.84
2022-08-20T21:39:37.321Z,19.74
2022-08-20T21:42:19.929Z,19.78
2022-08-20T21:44:49.394Z,19.92
2022-08-20T21:47:18.709Z,19.82
2022-08-20T21:49:49.259Z,19.86
2022-08-20T21:52:19.713Z,19.83
2022-08-20T21:54:50.190Z,19.76
2022-08-20T21:57:26.725Z,19.72
2022-08-20T21:59:58.870Z,19.60
2022-08-20T22:02:31.750Z,19.61
2022-08-20T22:05:04.206Z,19.64
2022-08-20T22:07:34.638Z,19.68
2022-08-20T22:10:07.377Z,19.76
2022-08-20T22:12:46.924Z,19.62
2022-08-20T22:15:17.812Z,19.52
2022-08-20T22:17:49.137Z,19.52
2022-08-20T22:20:21.282Z,19.57
2022-08-20T22:22:51.721Z,19.56
2022-08-20T22:25:23.430Z,19.70
2022-08-20T22:27:54.985Z,19.54
2022-08-20T22:30:27.020Z,19.54
2022-08-20T22:33:03.448Z,19.62
2022-08-20T22:35:35.087Z,19.54
2022-08-20T22:38:05.565Z,19.63
2022-08-20T22:40:36.050Z,19.52
2022-08-20T22:43:08.127Z,19.58
2022-08-20T22:45:39.437Z,19.53
2022-08-20T22:48:12.180Z,19.54
2022-08-20T22:50:42.897Z,19.68
2022-08-20T22:53:14.983Z,19.62
2022-08-20T22:55:45.652Z,19.56
2022-08-20T22:58:17.412Z,19.50
2022-08-20T23:00:49.433Z,19.59
2022-08-20T23:03:29.187Z,19.62
2022-08-20T23:05:53.055Z,19.62
2022-08-20T23:08:23.605Z,19.58
2022-08-20T23:10:55.979Z,19.64
2022-08-20T23:13:26.523Z,19.56
2022-08-20T23:15:57.791Z,19.66
2022-08-20T23:18:28.420Z,19.57
2022-08-20T23:21:02.537Z,19.67
2022-08-20T23:23:33.529Z,19.75
2022-08-20T23:26:06.725Z,19.66
2022-08-20T23:28:37.333Z,19.64
2022-08-20T23:31:07.989Z,19.72
2022-08-20T23:33:41.835Z,19.68
2022-08-20T23:36:12.369Z,19.47
2022-08-20T23:38:44.246Z,19.39
2022-08-20T23:41:14.760Z,19.57
2022-08-20T23:43:45.348Z,19.55
2022-08-20T23:46:15.897Z,19.39
2022-08-20T23:48:46.359Z,19.42
2022-08-20T23:51:18.336Z,19.30
2022-08-20T23:53:49.134Z,19.35
2022-08-20T23:56:19.866Z,19.38
2022-08-20T23:58:51.427Z,19.31
